Check out our new PWSWeather beta!
PWSweather.com
Personal Weather Stations
Station Observations
KCTHAMDEN
Dunbar Hill, Hamden, CT 06514

Dunbar HillHamden, CT 06514

Lat: 41.365437, Lon: -72.956532

Elevation: 200

Station Type: Davis Vantage Pro2+

www.hamdenweather.com

High Low Average
Temperature 40.6°F4.8°F 30.9°F-0.6°F 36.9°F2.7°F
Dew Point 39.3°F4.1°F 20.2°F-6.6°F 31.2°F-0.4°F
Winds 6.6 mph -10.6 mph - Calm Calm 1.0 mph 1.6 mph
Wind Gusts 11.0 mph17.7 mph -- 2.3 mph3.7 mph
Humidity 96% 62% 81%
Pressure 30.45 in1031.20 in 29.97 in1014.90 in -
Precipitation 0.14 in3.60 in - -
Hour Temp Dew Point Humidity Winds Wind Gusts Pressure Precip Precip Rate Daily Precip Total
12:00 AM 32.2°F0.1°C 20.6°F-6.3°C 62% Calm Calm -- 30.43 in1030.5 mb - 0.00 in0.0 mm 0.00 in0.0 mm
12:15 AM 31.7°F-0.2°C 21.3°F-5.9°C 65% Calm Calm -- 30.43 in1030.5 mb - 0.00 in0.0 mm 0.00 in0.0 mm
12:30 AM 31.3°F-0.4°C 20.5°F-6.4°C 64% Calm Calm -- 30.43 in1030.5 mb - 0.00 in0.0 mm 0.00 in0.0 mm
12:45 AM 30.9°F-0.6°C 20.9°F-6.2°C 66% 0.7 mph N1.1 kmh N 3.0 mph4.8 kmh 30.43 in1030.5 mb - 0.00 in0.0 mm 0.00 in0.0 mm
01:00 AM 30.9°F-0.6°C 21.2°F-6.0°C 67% 0.6 mph WSW1.0 kmh WSW 2.0 mph3.2 kmh 30.43 in1030.5 mb - 0.00 in0.0 mm 0.00 in0.0 mm
01:15 AM 31.0°F-0.6°C 20.9°F-6.2°C 66% 0.3 mph WSW0.5 kmh WSW -- 30.44 in1030.8 mb - 0.00 in0.0 mm 0.00 in0.0 mm
01:30 AM 31.2°F-0.4°C 20.8°F-6.2°C 65% Calm Calm -- 30.44 in1030.8 mb - 0.00 in0.0 mm 0.00 in0.0 mm
01:45 AM 31.5°F-0.3°C 20.7°F-6.3°C 64% 0.1 mph SW0.2 kmh SW 1.0 mph1.6 kmh 30.45 in1031.2 mb - 0.00 in0.0 mm 0.00 in0.0 mm
02:00 AM 31.6°F-0.2°C 20.8°F-6.2°C 64% 0.6 mph WSW1.0 kmh WSW 1.0 mph1.6 kmh 30.44 in1030.8 mb - 0.00 in0.0 mm 0.00 in0.0 mm
02:15 AM 31.7°F-0.2°C 20.5°F-6.4°C 63% 0.5 mph E0.8 kmh E 4.0 mph6.4 kmh 30.44 in1030.8 mb - 0.00 in0.0 mm 0.00 in0.0 mm
02:30 AM 31.9°F-0.1°C 20.3°F-6.5°C 62% Calm Calm -- 30.44 in1030.8 mb - 0.00 in0.0 mm 0.00 in0.0 mm
02:45 AM 31.9°F-0.1°C 20.3°F-6.5°C 62% 0.4 mph E0.6 kmh E 2.0 mph3.2 kmh 30.42 in1030.1 mb - 0.00 in0.0 mm 0.00 in0.0 mm
03:00 AM 31.8°F-0.1°C 20.3°F-6.5°C 62% 0.4 mph WSW0.6 kmh WSW 2.0 mph3.2 kmh 30.42 in1030.1 mb - 0.00 in0.0 mm 0.00 in0.0 mm
03:15 AM 31.7°F-0.2°C 20.2°F-6.6°C 62% 0.1 mph ESE0.2 kmh ESE 1.0 mph1.6 kmh 30.42 in1030.1 mb - 0.00 in0.0 mm 0.00 in0.0 mm
03:30 AM 31.7°F-0.2°C 20.2°F-6.6°C 62% 0.3 mph SE0.5 kmh SE 2.0 mph3.2 kmh 30.42 in1030.1 mb - 0.00 in0.0 mm 0.00 in0.0 mm
03:45 AM 31.7°F-0.2°C 20.6°F-6.3°C 63% 0.1 mph E0.2 kmh E 2.0 mph3.2 kmh 30.41 in1029.8 mb - 0.00 in0.0 mm 0.00 in0.0 mm
04:00 AM 31.9°F-0.1°C 20.7°F-6.3°C 63% 0.8 mph E1.3 kmh E 5.0 mph8.0 kmh 30.41 in1029.8 mb - 0.00 in0.0 mm 0.00 in0.0 mm
04:15 AM 32.0°F0.0°C 21.2°F-6.0°C 64% 1.8 mph ESE2.9 kmh ESE 6.0 mph9.7 kmh 30.41 in1029.8 mb - 0.00 in0.0 mm 0.00 in0.0 mm
04:30 AM 32.3°F0.2°C 21.5°F-5.8°C 64% 0.3 mph ESE0.5 kmh ESE 1.0 mph1.6 kmh 30.41 in1029.8 mb - 0.00 in0.0 mm 0.00 in0.0 mm
04:45 AM 32.5°F0.3°C 21.7°F-5.7°C 64% 1.6 mph E2.6 kmh E 2.0 mph3.2 kmh 30.40 in1029.5 mb - 0.00 in0.0 mm 0.00 in0.0 mm
05:00 AM 32.7°F0.4°C 21.8°F-5.7°C 64% 0.6 mph E1.0 kmh E 2.0 mph3.2 kmh 30.40 in1029.5 mb - 0.00 in0.0 mm 0.00 in0.0 mm
05:15 AM 32.9°F0.5°C 22.4°F-5.3°C 65% 2.7 mph SE4.3 kmh SE 4.0 mph6.4 kmh 30.39 in1029.1 mb - 0.00 in0.0 mm 0.00 in0.0 mm
05:30 AM 33.3°F0.7°C 22.4°F-5.3°C 64% 1.5 mph ESE2.4 kmh ESE 2.0 mph3.2 kmh 30.41 in1029.8 mb - 0.00 in0.0 mm 0.00 in0.0 mm
05:45 AM 33.5°F0.8°C 23.0°F-5.0°C 65% 2.6 mph SE4.2 kmh SE 3.0 mph4.8 kmh 30.41 in1029.8 mb - 0.00 in0.0 mm 0.00 in0.0 mm
06:00 AM 33.7°F0.9°C 23.2°F-4.9°C 65% 0.4 mph E0.6 kmh E 1.0 mph1.6 kmh 30.41 in1029.8 mb - 0.00 in0.0 mm 0.00 in0.0 mm
06:15 AM 33.8°F1.0°C 23.3°F-4.8°C 65% 1.1 mph ESE1.8 kmh ESE 3.0 mph4.8 kmh 30.40 in1029.5 mb - 0.00 in0.0 mm 0.00 in0.0 mm
06:30 AM 33.8°F1.0°C 23.3°F-4.8°C 65% 0.3 mph E0.5 kmh E 1.0 mph1.6 kmh 30.41 in1029.8 mb - 0.00 in0.0 mm 0.00 in0.0 mm
06:45 AM 33.8°F1.0°C 23.6°F-4.7°C 66% 1.1 mph SE1.8 kmh SE 2.0 mph3.2 kmh 30.41 in1029.8 mb - 0.00 in0.0 mm 0.00 in0.0 mm
07:00 AM 33.8°F1.0°C 23.6°F-4.7°C 66% 3.4 mph E5.5 kmh E 6.0 mph9.7 kmh 30.41 in1029.8 mb - 0.00 in0.0 mm 0.00 in0.0 mm
07:15 AM 33.9°F1.1°C 23.7°F-4.6°C 66% 0.3 mph E0.5 kmh E 1.0 mph1.6 kmh 30.41 in1029.8 mb - 0.00 in0.0 mm 0.00 in0.0 mm
07:30 AM 34.0°F1.1°C 24.2°F-4.3°C 67% 0.2 mph ESE0.3 kmh ESE 2.0 mph3.2 kmh 30.41 in1029.8 mb - 0.00 in0.0 mm 0.00 in0.0 mm
07:45 AM 34.3°F1.3°C 24.5°F-4.2°C 67% 0.3 mph E0.5 kmh E 2.0 mph3.2 kmh 30.40 in1029.5 mb - 0.00 in0.0 mm 0.00 in0.0 mm
08:00 AM 34.7°F1.5°C 25.2°F-3.8°C 68% 1.5 mph SE2.4 kmh SE 3.0 mph4.8 kmh 30.39 in1029.1 mb - 0.00 in0.0 mm 0.00 in0.0 mm
08:15 AM 35.1°F1.7°C 25.6°F-3.6°C 68% 0.7 mph SE1.1 kmh SE 2.0 mph3.2 kmh 30.39 in1029.1 mb - 0.00 in0.0 mm 0.00 in0.0 mm
08:30 AM 35.5°F1.9°C 26.0°F-3.3°C 68% 0.7 mph E1.1 kmh E 3.0 mph4.8 kmh 30.38 in1028.8 mb - 0.00 in0.0 mm 0.00 in0.0 mm
08:45 AM 35.9°F2.2°C 26.7°F-2.9°C 69% 0.9 mph SE1.4 kmh SE 2.0 mph3.2 kmh 30.37 in1028.4 mb - 0.00 in0.0 mm 0.00 in0.0 mm
09:00 AM 36.4°F2.4°C 27.5°F-2.5°C 70% 0.6 mph ESE1.0 kmh ESE 2.0 mph3.2 kmh 30.37 in1028.4 mb - 0.00 in0.0 mm 0.00 in0.0 mm
09:15 AM 37.0°F2.8°C 28.4°F-2.0°C 71% 0.3 mph E0.5 kmh E 1.0 mph1.6 kmh 30.36 in1028.1 mb - 0.00 in0.0 mm 0.00 in0.0 mm
09:30 AM 37.5°F3.1°C 29.3°F-1.5°C 72% 0.9 mph SE1.4 kmh SE 3.0 mph4.8 kmh 30.36 in1028.1 mb - 0.00 in0.0 mm 0.00 in0.0 mm
09:45 AM 38.2°F3.4°C 30.7°F-0.7°C 74% 1.0 mph SSE1.6 kmh SSE 2.0 mph3.2 kmh 30.35 in1027.8 mb - 0.00 in0.0 mm 0.00 in0.0 mm
10:00 AM 38.9°F3.8°C 31.6°F-0.2°C 75% 0.5 mph SE0.8 kmh SE 2.0 mph3.2 kmh 30.34 in1027.4 mb - 0.00 in0.0 mm 0.00 in0.0 mm
10:15 AM 39.3°F4.1°C 32.4°F0.2°C 76% 3.6 mph SE5.8 kmh SE 7.0 mph11.3 kmh 30.34 in1027.4 mb - 0.00 in0.0 mm 0.00 in0.0 mm
10:30 AM 39.7°F4.3°C 32.8°F0.4°C 76% 2.5 mph SE4.0 kmh SE 9.0 mph14.5 kmh 30.34 in1027.4 mb - 0.00 in0.0 mm 0.00 in0.0 mm
10:45 AM 40.2°F4.6°C 34.5°F1.4°C 80% 0.4 mph SE0.6 kmh SE 2.0 mph3.2 kmh 30.34 in1027.4 mb - 0.00 in0.0 mm 0.00 in0.0 mm
11:00 AM 40.5°F4.7°C 35.7°F2.1°C 83% 0.7 mph SE1.1 kmh SE 5.0 mph8.0 kmh 30.33 in1027.1 mb - 0.00 in0.0 mm 0.00 in0.0 mm
11:15 AM 40.5°F4.7°C 36.0°F2.2°C 84% 6.6 mph SE10.6 kmh SE 9.0 mph14.5 kmh 30.31 in1026.4 mb - 0.00 in0.0 mm 0.00 in0.0 mm
11:30 AM 40.4°F4.7°C 36.2°F2.3°C 85% 4.3 mph SE6.9 kmh SE 9.0 mph14.5 kmh 30.30 in1026.1 mb - 0.01 in0.3 mm 0.01 in0.3 mm
11:45 AM 40.2°F4.6°C 36.3°F2.4°C 86% 3.8 mph SE6.1 kmh SE 9.0 mph14.5 kmh 30.29 in1025.7 mb - 0.00 in0.0 mm 0.01 in0.3 mm
12:00 PM 40.1°F4.5°C 36.5°F2.5°C 87% 2.3 mph SE3.7 kmh SE 1.0 mph1.6 kmh 30.27 in1025.1 mb - 0.00 in0.0 mm 0.01 in0.3 mm
12:15 PM 40.1°F4.5°C 36.5°F2.5°C 87% 3.6 mph SSE5.8 kmh SSE 6.0 mph9.7 kmh 30.26 in1024.7 mb - 0.00 in0.0 mm 0.01 in0.3 mm
12:30 PM 40.0°F4.4°C 36.4°F2.4°C 87% 1.2 mph S1.9 kmh S 4.0 mph6.4 kmh 30.25 in1024.4 mb - 0.00 in0.0 mm 0.01 in0.3 mm
12:45 PM 39.9°F4.4°C 36.7°F2.6°C 88% 0.6 mph SE1.0 kmh SE 3.0 mph4.8 kmh 30.24 in1024.0 mb - 0.00 in0.0 mm 0.01 in0.3 mm
01:00 PM 39.9°F4.4°C 36.6°F2.6°C 88% 6.5 mph SSE10.5 kmh SSE 11.0 mph17.7 kmh 30.23 in1023.7 mb - 0.00 in0.0 mm 0.01 in0.3 mm
01:15 PM 39.9°F4.4°C 36.7°F2.6°C 88% 1.1 mph SE1.8 kmh SE 7.0 mph11.3 kmh 30.21 in1023.0 mb - 0.00 in0.0 mm 0.01 in0.3 mm
01:30 PM 40.1°F4.5°C 37.1°F2.8°C 89% 1.6 mph S2.6 kmh S 5.0 mph8.0 kmh 30.20 in1022.7 mb - 0.00 in0.0 mm 0.01 in0.3 mm
01:45 PM 40.2°F4.6°C 37.2°F2.9°C 89% 1.7 mph SE2.7 kmh SE 3.0 mph4.8 kmh 30.18 in1022.0 mb - 0.00 in0.0 mm 0.01 in0.3 mm
02:00 PM 40.5°F4.7°C 37.5°F3.1°C 89% 5.0 mph SSE8.0 kmh SSE 8.0 mph12.9 kmh 30.17 in1021.7 mb - 0.00 in0.0 mm 0.01 in0.3 mm
02:15 PM 40.5°F4.7°C 37.5°F3.1°C 89% 1.5 mph SE2.4 kmh SE 2.0 mph3.2 kmh 30.16 in1021.3 mb - 0.00 in0.0 mm 0.01 in0.3 mm
02:30 PM 40.6°F4.8°C 37.6°F3.1°C 89% 2.9 mph SSE4.7 kmh SSE 9.0 mph14.5 kmh 30.15 in1021.0 mb - 0.00 in0.0 mm 0.01 in0.3 mm
02:45 PM 40.6°F4.8°C 37.9°F3.3°C 90% 1.6 mph SE2.6 kmh SE 2.0 mph3.2 kmh 30.13 in1020.3 mb - 0.00 in0.0 mm 0.01 in0.3 mm
03:00 PM 40.6°F4.8°C 38.1°F3.4°C 91% 1.0 mph SE1.6 kmh SE 5.0 mph8.0 kmh 30.13 in1020.3 mb - 0.00 in0.0 mm 0.01 in0.3 mm
03:15 PM 40.5°F4.7°C 38.1°F3.4°C 91% 1.0 mph SE1.6 kmh SE 2.0 mph3.2 kmh 30.12 in1020.0 mb - 0.00 in0.0 mm 0.01 in0.3 mm
03:30 PM 40.6°F4.8°C 38.4°F3.6°C 92% 1.5 mph E2.4 kmh E 3.0 mph4.8 kmh 30.12 in1020.0 mb - 0.01 in0.3 mm 0.02 in0.5 mm
03:45 PM 40.5°F4.7°C 38.4°F3.6°C 92% 1.3 mph E2.1 kmh E 2.0 mph3.2 kmh 30.11 in1019.6 mb - 0.00 in0.0 mm 0.02 in0.5 mm
04:00 PM 40.5°F4.7°C 38.6°F3.7°C 93% 1.3 mph SE2.1 kmh SE 2.0 mph3.2 kmh 30.10 in1019.3 mb - 0.02 in0.5 mm 0.04 in1.0 mm
04:15 PM 40.6°F4.8°C 38.7°F3.7°C 93% 0.5 mph ESE0.8 kmh ESE 2.0 mph3.2 kmh 30.09 in1019.0 mb - 0.02 in0.5 mm 0.05 in1.3 mm
04:30 PM 40.5°F4.7°C 38.9°F3.8°C 94% 0.1 mph ESE0.2 kmh ESE 1.0 mph1.6 kmh 30.08 in1018.6 mb - 0.01 in0.3 mm 0.06 in1.5 mm
04:45 PM 40.5°F4.7°C 38.9°F3.8°C 94% 2.4 mph WNW3.9 kmh WNW 3.0 mph4.8 kmh 30.06 in1017.9 mb - 0.02 in0.5 mm 0.07 in1.8 mm
05:00 PM 40.6°F4.8°C 39.0°F3.9°C 94% 0.5 mph E0.8 kmh E 2.0 mph3.2 kmh 30.06 in1017.9 mb - 0.00 in0.0 mm 0.07 in1.8 mm
05:15 PM 40.6°F4.8°C 39.0°F3.9°C 94% 0.1 mph WSW0.2 kmh WSW 1.0 mph1.6 kmh 30.05 in1017.6 mb - 0.00 in0.0 mm 0.07 in1.8 mm
05:30 PM 40.6°F4.8°C 39.0°F3.9°C 94% Calm Calm -- 30.04 in1017.3 mb - 0.01 in0.3 mm 0.08 in2.0 mm
05:45 PM 40.6°F4.8°C 39.3°F4.1°C 95% 0.1 mph WSW0.2 kmh WSW -- 30.04 in1017.3 mb - 0.00 in0.0 mm 0.08 in2.0 mm
06:00 PM 40.6°F4.8°C 39.3°F4.1°C 95% Calm Calm -- 30.03 in1016.9 mb - 0.00 in0.0 mm 0.08 in2.0 mm
06:15 PM 40.5°F4.7°C 39.2°F4.0°C 95% 1.3 mph E2.1 kmh E 2.0 mph3.2 kmh 30.03 in1016.9 mb - 0.01 in0.3 mm 0.09 in2.3 mm
06:30 PM 40.4°F4.7°C 39.1°F3.9°C 95% 1.0 mph E1.6 kmh E 2.0 mph3.2 kmh 30.03 in1016.9 mb - 0.00 in0.0 mm 0.09 in2.3 mm
06:45 PM 40.2°F4.6°C 38.8°F3.8°C 95% Calm Calm -- 30.01 in1016.3 mb - 0.00 in0.0 mm 0.09 in2.3 mm
07:00 PM 39.8°F4.3°C 38.5°F3.6°C 95% 0.8 mph E1.3 kmh E -- 30.01 in1016.3 mb - 0.00 in0.0 mm 0.09 in2.3 mm
07:15 PM 39.5°F4.2°C 38.2°F3.4°C 95% Calm Calm -- 30.01 in1016.3 mb - 0.00 in0.0 mm 0.09 in2.3 mm
07:30 PM 39.2°F4.0°C 37.9°F3.3°C 95% Calm Calm -- 30.01 in1016.3 mb - 0.00 in0.0 mm 0.09 in2.3 mm
07:45 PM 38.8°F3.8°C 37.5°F3.1°C 95% Calm Calm -- 30.01 in1016.3 mb - 0.00 in0.0 mm 0.09 in2.3 mm
08:00 PM 38.6°F3.7°C 37.3°F2.9°C 95% Calm Calm -- 30.01 in1016.3 mb - 0.01 in0.3 mm 0.10 in2.5 mm
08:15 PM 38.4°F3.6°C 37.1°F2.8°C 95% Calm Calm -- 30.00 in1015.9 mb - 0.00 in0.0 mm 0.10 in2.5 mm
08:30 PM 38.1°F3.4°C 36.8°F2.7°C 95% Calm Calm -- 30.00 in1015.9 mb - 0.01 in0.3 mm 0.11 in2.8 mm
08:45 PM 38.0°F3.3°C 36.6°F2.6°C 95% Calm Calm -- 29.99 in1015.6 mb - 0.00 in0.0 mm 0.11 in2.8 mm
09:00 PM 37.8°F3.2°C 36.5°F2.5°C 95% Calm Calm -- 30.00 in1015.9 mb - 0.00 in0.0 mm 0.11 in2.8 mm
09:15 PM 37.7°F3.2°C 36.4°F2.4°C 95% Calm Calm -- 30.00 in1015.9 mb - 0.00 in0.0 mm 0.11 in2.8 mm
09:30 PM 37.6°F3.1°C 36.6°F2.6°C 96% Calm Calm -- 29.99 in1015.6 mb - 0.00 in0.0 mm 0.11 in2.8 mm
09:45 PM 37.6°F3.1°C 36.3°F2.4°C 95% Calm Calm -- 30.00 in1015.9 mb - 0.00 in0.0 mm 0.11 in2.8 mm
10:00 PM 37.6°F3.1°C 36.6°F2.6°C 96% Calm Calm -- 29.99 in1015.6 mb - 0.00 in0.0 mm 0.11 in2.8 mm
10:15 PM 37.6°F3.1°C 36.5°F2.5°C 96% Calm Calm -- 29.99 in1015.6 mb - 0.00 in0.0 mm 0.11 in2.8 mm
10:30 PM 37.5°F3.1°C 36.5°F2.5°C 96% Calm Calm -- 29.98 in1015.2 mb - 0.00 in0.0 mm 0.11 in2.8 mm
10:45 PM 37.5°F3.1°C 36.5°F2.5°C 96% Calm Calm -- 29.97 in1014.9 mb - 0.00 in0.0 mm 0.11 in2.8 mm
11:00 PM 37.5°F3.1°C 36.5°F2.5°C 96% Calm Calm -- 29.97 in1014.9 mb - 0.01 in0.3 mm 0.12 in3.0 mm
11:15 PM 37.5°F3.1°C 36.5°F2.5°C 96% Calm Calm -- 29.98 in1015.2 mb - 0.00 in0.0 mm 0.12 in3.0 mm
11:30 PM 37.6°F3.1°C 36.6°F2.6°C 96% Calm Calm -- 29.99 in1015.6 mb - 0.00 in0.0 mm 0.12 in3.0 mm
11:45 PM 37.7°F3.2°C 36.7°F2.6°C 96% Calm Calm -- 29.99 in1015.6 mb - 0.00 in0.0 mm 0.12 in3.0 mm